Aviation Digital Data Service (ADDS)

Output produced by METARs form (2000 UTC 18 October 2018)
found at http://aviationweather.gov/metar/data/
 
KSVH 181940Z AUTO 04005KT 10SM CLR 17/01 A3037 RMK AO2 T01710012
KSVH 181920Z AUTO 03007KT 10SM CLR 17/01 A3037 RMK AO2 T01710012